Time;durP1;ratioP1;P1;durP2;ratioP2;P2;SDS_P1;SDS_P2;PMS_P1;PMS_P2;Temp;Humidity;BMP_temperature;BMP_pressure;BME280_temperature;BME280_humidity;BME280_pressure;Samples;Min_cycle;Max_cycle;Signal;HPM_P1;HPM_P2
2022/01/31 00:02:16;;;;;;;3.17;0.82;;;23.50;35.90;;;;;;5026661;28;20030;-48
2022/01/31 00:04:42;;;;;;;3.42;1.05;;;23.50;35.80;;;;;;5027228;28;20034;-49
2022/01/31 00:07:10;;;;;;;3.33;1.10;;;23.40;35.80;;;;;;5027742;28;20682;-48
2022/01/31 00:09:36;;;;;;;3.35;1.00;;;23.40;35.80;;;;;;5027597;28;20033;-48
2022/01/31 00:12:07;;;;;;;3.05;1.02;;;23.40;35.80;;;;;;5027332;28;20096;-48
2022/01/31 00:16:59;;;;;;;2.83;1.30;;;23.40;35.70;;;;;;5027140;28;20230;-49
2022/01/31 00:19:25;;;;;;;1.98;0.90;;;23.40;35.70;;;;;;5026843;28;20033;-48
2022/01/31 00:21:51;;;;;;;3.40;1.45;;;23.40;35.70;;;;;;5025845;28;20034;-48
2022/01/31 00:24:17;;;;;;;3.35;1.10;;;23.30;35.70;;;;;;5027645;28;20036;-48
2022/01/31 00:26:43;;;;;;;2.63;0.93;;;23.30;35.70;;;;;;5027703;28;20076;-47
2022/01/31 00:29:08;;;;;;;2.42;0.98;;;23.30;35.70;;;;;;5027695;28;20029;-48
2022/01/31 00:31:34;;;;;;;1.98;0.90;;;23.30;35.70;;;;;;5025853;28;20025;-49
2022/01/31 00:34:00;;;;;;;3.22;1.30;;;23.30;35.70;;;;;;5027373;28;20100;-48
2022/01/31 00:36:26;;;;;;;3.53;1.30;;;23.30;35.70;;;;;;5027159;28;20065;-48
2022/01/31 00:38:51;;;;;;;2.50;0.95;;;23.30;36.30;;;;;;5027720;28;20037;-48
2022/01/31 00:41:17;;;;;;;3.63;1.63;;;23.30;35.70;;;;;;5027320;28;20029;-48
2022/01/31 00:43:54;;;;;;;2.08;0.93;;;23.30;35.60;;;;;;5025802;28;20228;-47
2022/01/31 00:46:25;;;;;;;2.70;1.00;;;23.20;35.50;;;;;;5027267;28;20026;-47
2022/01/31 00:48:51;;;;;;;2.88;1.20;;;23.20;35.40;;;;;;5025995;28;20478;-48
2022/01/31 00:51:17;;;;;;;2.67;1.05;;;23.20;35.40;;;;;;5026993;28;20034;-48
2022/01/31 00:53:43;;;;;;;3.30;1.35;;;23.20;35.30;;;;;;5027028;28;20021;-48
2022/01/31 00:56:09;;;;;;;2.67;0.80;;;23.20;35.30;;;;;;5027382;28;20060;-48
2022/01/31 00:58:35;;;;;;;2.25;0.80;;;23.20;35.30;;;;;;5027323;28;20376;-48
2022/01/31 01:01:01;;;;;;;2.42;1.02;;;23.10;35.30;;;;;;5027111;28;20029;-47
2022/01/31 01:03:26;;;;;;;3.08;1.00;;;23.10;35.30;;;;;;5027161;28;20254;-48
2022/01/31 01:05:53;;;;;;;3.17;1.30;;;23.10;35.30;;;;;;5026974;28;20317;-48
2022/01/31 01:08:19;;;;;;;2.40;1.00;;;23.10;35.20;;;;;;5027301;28;20018;-48
2022/01/31 01:10:45;;;;;;;3.08;1.02;;;23.10;35.30;;;;;;5026769;28;20057;-48
2022/01/31 01:13:11;;;;;;;2.72;1.00;;;23.10;35.30;;;;;;5026688;28;20024;-49
2022/01/31 01:15:37;;;;;;;2.47;0.75;;;23.10;35.30;;;;;;5027135;28;20029;-49
2022/01/31 01:18:04;;;;;;;2.35;1.05;;;23.10;35.30;;;;;;5026373;28;20036;-49
2022/01/31 01:20:30;;;;;;;2.45;0.88;;;23.00;35.20;;;;;;5026210;28;20030;-48
2022/01/31 01:22:56;;;;;;;2.88;1.00;;;23.00;35.20;;;;;;5026365;28;20021;-48
2022/01/31 01:25:22;;;;;;;3.00;1.20;;;23.00;35.20;;;;;;5026218;28;20018;-49
2022/01/31 01:27:51;;;;;;;2.67;1.00;;;23.00;35.10;;;;;;5026327;28;20132;-48
2022/01/31 01:30:17;;;;;;;2.65;1.00;;;23.00;35.10;;;;;;5026300;28;20532;-48
2022/01/31 01:33:19;;;;;;;2.45;0.80;;;23.00;35.10;;;;;;5026283;28;20030;-48
2022/01/31 01:35:38;;;;;;;2.47;0.80;;;23.00;35.10;;;;;;5025020;28;20045;-47
2022/01/31 01:38:07;;;;;;;3.92;1.23;;;23.00;35.00;;;;;;5026165;28;20116;-48
2022/01/31 01:40:39;;;;;;;2.30;0.88;;;23.00;35.10;;;;;;5026694;28;20037;-48
2022/01/31 01:43:04;;;;;;;3.08;0.98;;;22.90;35.00;;;;;;5019610;28;20032;-51
2022/01/31 01:45:30;;;;;;;1.70;0.77;;;22.90;35.00;;;;;;5026393;28;20417;-48
2022/01/31 01:47:56;;;;;;;2.47;0.80;;;22.90;35.00;;;;;;5026222;28;20021;-48
2022/01/31 01:50:21;;;;;;;3.35;1.10;;;22.90;35.00;;;;;;5025892;28;20029;-47
2022/01/31 01:52:47;;;;;;;2.60;1.10;;;22.90;35.10;;;;;;5025732;28;20056;-48
2022/01/31 01:55:14;;;;;;;2.60;1.00;;;22.90;35.00;;;;;;5026418;28;20044;-48
2022/01/31 01:57:40;;;;;;;2.97;1.08;;;22.80;35.00;;;;;;5025910;28;20036;-48
2022/01/31 02:00:08;;;;;;;3.05;0.82;;;22.90;35.10;;;;;;5025620;28;20026;-48
2022/01/31 02:02:34;;;;;;;3.10;1.25;;;22.80;35.10;;;;;;5023809;28;20514;-48
2022/01/31 02:05:00;;;;;;;4.43;1.35;;;22.80;35.10;;;;;;5025468;28;20104;-49
2022/01/31 02:07:26;;;;;;;2.47;0.90;;;22.80;35.10;;;;;;5025269;28;20034;-47
2022/01/31 02:09:55;;;;;;;2.90;1.10;;;22.80;35.10;;;;;;5024200;28;20029;-48
2022/01/31 02:12:23;;;;;;;2.95;0.90;;;22.80;35.10;;;;;;5025705;28;20469;-48
2022/01/31 02:14:49;;;;;;;3.47;1.17;;;22.80;35.10;;;;;;5025417;28;20765;-48
2022/01/31 02:17:15;;;;;;;2.92;1.13;;;22.80;35.00;;;;;;5025347;28;20033;-48
2022/01/31 02:19:41;;;;;;;3.88;1.13;;;22.80;35.00;;;;;;5024178;28;20121;-48
2022/01/31 02:22:06;;;;;;;2.63;0.93;;;22.80;35.00;;;;;;5025168;28;20088;-48
2022/01/31 02:24:32;;;;;;;3.75;1.10;;;22.70;35.00;;;;;;5024288;28;20544;-48
2022/01/31 02:27:01;;;;;;;1.35;0.50;;;22.70;35.00;;;;;;5023527;28;20107;-48
2022/01/31 02:29:26;;;;;;;3.00;1.00;;;22.70;35.00;;;;;;5025387;28;20066;-48
2022/01/31 02:31:52;;;;;;;2.65;0.82;;;22.70;35.00;;;;;;5023769;28;20057;-48
2022/01/31 02:34:18;;;;;;;3.15;0.98;;;22.70;35.00;;;;;;5024970;28;20021;-48
2022/01/31 02:36:44;;;;;;;2.13;0.90;;;22.70;35.00;;;;;;5023048;28;20044;-48
2022/01/31 02:39:10;;;;;;;2.38;0.80;;;22.70;35.00;;;;;;5023799;28;20166;-48
2022/01/31 02:41:43;;;;;;;2.33;0.80;;;22.70;35.00;;;;;;5024461;28;20033;-48
2022/01/31 02:44:14;;;;;;;3.35;1.35;;;22.70;35.10;;;;;;5025125;28;20112;-48
2022/01/31 02:46:51;;;;;;;2.20;0.80;;;22.70;35.00;;;;;;5025384;28;20112;-48
2022/01/31 02:49:20;;;;;;;2.50;0.70;;;22.60;35.00;;;;;;5024647;28;20056;-49
2022/01/31 02:51:52;;;;;;;2.50;0.90;;;22.60;35.00;;;;;;5024768;28;20030;-48
2022/01/31 02:54:18;;;;;;;2.15;0.95;;;22.60;35.00;;;;;;5025146;28;20458;-48
2022/01/31 02:56:44;;;;;;;4.53;1.05;;;22.60;35.00;;;;;;5024687;28;20283;-47
2022/01/31 02:59:09;;;;;;;2.85;1.13;;;22.60;35.00;;;;;;5023237;28;20496;-48
2022/01/31 03:01:36;;;;;;;3.50;1.13;;;22.60;35.00;;;;;;5023982;28;20034;-48
2022/01/31 03:04:03;;;;;;;3.40;1.05;;;22.60;35.00;;;;;;5024546;28;20059;-48
2022/01/31 03:06:29;;;;;;;2.00;0.70;;;22.60;34.90;;;;;;5024563;28;20120;-48
2022/01/31 03:08:54;;;;;;;2.25;0.70;;;22.60;35.00;;;;;;5024569;28;20109;-48
2022/01/31 03:11:20;;;;;;;1.98;0.85;;;22.50;34.90;;;;;;5023477;28;20029;-48
2022/01/31 03:13:46;;;;;;;2.63;1.00;;;22.60;34.90;;;;;;5024451;28;20038;-48
2022/01/31 03:16:11;;;;;;;2.42;0.80;;;22.50;35.00;;;;;;5024165;28;20590;-48
2022/01/31 03:18:37;;;;;;;1.95;0.77;;;22.50;35.00;;;;;;5022111;28;20038;-46
2022/01/31 03:21:03;;;;;;;1.98;0.75;;;22.50;35.00;;;;;;5023857;28;20119;-48
2022/01/31 03:23:28;;;;;;;2.50;0.80;;;22.50;34.90;;;;;;5023791;28;20091;-48
2022/01/31 03:25:54;;;;;;;2.95;0.80;;;22.50;35.00;;;;;;5023709;28;20063;-48
2022/01/31 03:28:20;;;;;;;2.15;0.80;;;22.50;35.00;;;;;;5023955;28;20029;-48
2022/01/31 03:30:45;;;;;;;2.70;0.98;;;22.50;35.00;;;;;;5024061;28;20030;-48
2022/01/31 03:33:11;;;;;;;2.83;1.00;;;22.50;35.10;;;;;;5024333;28;20037;-48
2022/01/31 03:35:37;;;;;;;2.45;0.70;;;22.50;35.10;;;;;;5024248;28;20068;-48
2022/01/31 03:38:03;;;;;;;2.85;0.90;;;22.40;35.00;;;;;;5024640;28;20401;-49
2022/01/31 03:40:29;;;;;;;1.90;0.80;;;22.50;35.10;;;;;;5024054;28;20065;-47
2022/01/31 03:42:55;;;;;;;2.95;0.80;;;22.40;35.00;;;;;;5023658;28;20022;-48
2022/01/31 03:45:21;;;;;;;3.58;1.42;;;22.50;35.10;;;;;;5023842;28;20030;-47
2022/01/31 03:47:47;;;;;;;1.92;0.70;;;22.50;35.10;;;;;;5024111;28;20112;-48
2022/01/31 03:50:18;;;;;;;1.70;0.63;;;22.40;35.00;;;;;;5023788;28;20029;-48
2022/01/31 03:52:44;;;;;;;2.22;0.70;;;22.40;34.90;;;;;;5023935;28;20044;-48
2022/01/31 03:55:12;;;;;;;2.67;1.10;;;22.40;34.90;;;;;;5024163;28;20029;-48
2022/01/31 03:57:37;;;;;;;3.13;0.93;;;22.40;34.90;;;;;;5023112;28;20032;-48
2022/01/31 04:00:09;;;;;;;2.72;0.85;;;22.40;34.90;;;;;;5022576;28;20037;-48
2022/01/31 04:02:35;;;;;;;1.88;0.70;;;22.40;35.00;;;;;;5023566;28;20036;-49
2022/01/31 04:05:00;;;;;;;2.35;0.85;;;22.40;34.90;;;;;;5023202;28;20026;-48
2022/01/31 04:07:26;;;;;;;3.75;1.02;;;22.40;34.90;;;;;;5023591;28;20033;-48
2022/01/31 04:09:53;;;;;;;2.45;0.70;;;22.40;34.90;;;;;;5023996;28;20022;-48
2022/01/31 04:12:19;;;;;;;3.05;0.80;;;22.40;34.90;;;;;;5022596;28;20021;-48
2022/01/31 04:14:44;;;;;;;2.42;0.80;;;22.30;34.90;;;;;;5024139;28;20048;-47
2022/01/31 04:17:11;;;;;;;1.90;0.70;;;22.40;35.00;;;;;;5024157;28;20163;-48
2022/01/31 04:19:38;;;;;;;2.70;1.08;;;22.30;34.90;;;;;;5023802;28;20108;-48
2022/01/31 04:22:09;;;;;;;2.55;0.93;;;22.30;34.90;;;;;;5024217;28;20025;-48
2022/01/31 04:24:35;;;;;;;1.73;0.55;;;22.30;34.90;;;;;;5027578;28;20569;-48
2022/01/31 04:27:05;;;;;;;2.15;0.80;;;22.30;34.90;;;;;;5027037;28;20057;-47
2022/01/31 04:29:35;;;;;;;1.83;0.65;;;22.30;34.90;;;;;;5027828;28;20063;-48
2022/01/31 04:32:01;;;;;;;2.60;0.80;;;22.30;35.00;;;;;;5027489;28;20033;-48
2022/01/31 04:34:28;;;;;;;2.67;0.82;;;22.30;35.00;;;;;;5027259;28;20033;-48
2022/01/31 04:36:54;;;;;;;2.15;0.65;;;22.30;35.00;;;;;;5026148;28;20033;-48
2022/01/31 04:39:20;;;;;;;2.45;0.80;;;22.30;34.90;;;;;;5027395;28;20037;-48
2022/01/31 04:41:48;;;;;;;3.13;1.23;;;22.30;34.90;;;;;;5026666;28;20349;-49
2022/01/31 04:44:14;;;;;;;2.67;0.90;;;22.30;34.90;;;;;;5027296;28;20729;-48
2022/01/31 04:46:40;;;;;;;2.05;0.60;;;22.30;34.90;;;;;;5026336;28;20031;-48
2022/01/31 04:49:07;;;;;;;3.63;0.82;;;22.30;34.90;;;;;;5025830;28;20100;-47
2022/01/31 04:51:36;;;;;;;2.08;0.88;;;22.30;34.90;;;;;;5026503;28;20079;-48
2022/01/31 04:54:02;;;;;;;1.63;0.55;;;22.30;34.90;;;;;;5026831;28;20022;-48
2022/01/31 04:56:27;;;;;;;2.05;0.77;;;22.30;34.90;;;;;;5027037;28;20561;-48
2022/01/31 04:58:53;;;;;;;3.00;1.00;;;22.30;34.90;;;;;;5025445;28;20029;-48
2022/01/31 05:01:19;;;;;;;1.55;0.60;;;22.30;34.90;;;;;;5026177;28;20144;-48
2022/01/31 05:03:45;;;;;;;3.17;1.08;;;22.30;34.90;;;;;;5025638;28;20029;-48
2022/01/31 05:06:14;;;;;;;1.92;0.73;;;22.30;34.90;;;;;;5024017;28;20025;-48
2022/01/31 05:08:40;;;;;;;1.92;0.70;;;22.30;34.90;;;;;;5026329;28;20032;-48
2022/01/31 05:11:08;;;;;;;2.03;0.70;;;22.30;35.00;;;;;;5023754;28;20033;-49
2022/01/31 05:13:37;;;;;;;1.95;0.70;;;22.20;34.80;;;;;;5025228;28;20018;-48
2022/01/31 05:16:06;;;;;;;1.80;0.70;;;22.30;35.20;;;;;;5025858;28;20045;-48
2022/01/31 05:18:33;;;;;;;2.58;0.95;;;22.30;35.30;;;;;;5025070;28;20280;-48
2022/01/31 05:20:59;;;;;;;3.85;1.17;;;22.30;35.60;;;;;;5023544;28;20740;-49
2022/01/31 05:23:25;;;;;;;2.88;0.98;;;22.30;35.90;;;;;;5024856;28;20014;-48
2022/01/31 05:25:50;;;;;;;3.25;1.05;;;22.30;36.10;;;;;;5025178;28;20100;-49
2022/01/31 05:28:16;;;;;;;6.20;1.85;;;22.30;36.30;;;;;;5024754;28;20405;-49
2022/01/31 05:30:42;;;;;;;14.75;4.63;;;22.40;36.40;;;;;;5024028;28;20503;-49
2022/01/31 05:33:07;;;;;;;25.90;8.15;;;22.40;36.60;;;;;;5023175;28;20100;-48
2022/01/31 05:35:33;;;;;;;23.23;8.55;;;22.50;36.80;;;;;;5015710;28;20034;-48
2022/01/31 05:37:59;;;;;;;24.13;8.40;;;22.50;36.70;;;;;;5018787;28;20451;-48
2022/01/31 05:40:25;;;;;;;27.42;10.18;;;22.60;36.80;;;;;;5025537;28;20056;-48
2022/01/31 05:42:50;;;;;;;30.08;9.93;;;22.60;36.70;;;;;;5026636;28;20112;-48
2022/01/31 05:45:16;;;;;;;28.02;9.68;;;22.70;36.70;;;;;;5026143;28;20030;-48
2022/01/31 05:47:42;;;;;;;25.73;9.82;;;22.80;36.50;;;;;;5026017;28;20098;-49
2022/01/31 05:50:09;;;;;;;24.25;9.02;;;22.90;36.40;;;;;;5025204;28;20421;-48
2022/01/31 05:52:34;;;;;;;25.05;9.48;;;23.00;36.30;;;;;;5025987;28;20055;-48
2022/01/31 05:55:00;;;;;;;20.65;8.98;;;23.10;36.20;;;;;;5024761;28;20493;-48
2022/01/31 05:57:26;;;;;;;17.92;8.35;;;23.10;36.10;;;;;;5026168;28;20044;-48
2022/01/31 05:59:52;;;;;;;21.75;9.00;;;23.20;35.90;;;;;;5025650;28;20053;-48
2022/01/31 06:02:19;;;;;;;18.13;7.43;;;23.30;35.80;;;;;;5025061;28;20028;-49
2022/01/31 06:04:45;;;;;;;17.67;7.82;;;23.30;35.60;;;;;;5022541;28;20472;-49
2022/01/31 06:07:10;;;;;;;20.30;6.78;;;23.40;35.30;;;;;;5025473;28;20105;-49
2022/01/31 06:09:37;;;;;;;15.75;5.93;;;23.50;35.30;;;;;;5024763;28;20044;-48
2022/01/31 06:12:04;;;;;;;15.68;5.75;;;23.50;35.50;;;;;;5024279;28;20034;-49
2022/01/31 06:14:31;;;;;;;12.60;4.93;;;23.60;35.50;;;;;;5024239;28;20623;-48
2022/01/31 06:16:57;;;;;;;12.88;4.80;;;23.60;35.30;;;;;;5024480;28;20083;-48
2022/01/31 06:19:23;;;;;;;10.55;5.00;;;23.70;35.20;;;;;;5023089;28;20021;-48
2022/01/31 06:21:48;;;;;;;12.07;4.80;;;23.80;35.10;;;;;;5022706;28;20029;-48
2022/01/31 06:24:15;;;;;;;9.38;3.63;;;23.80;34.90;;;;;;5024750;28;20056;-48
2022/01/31 06:26:42;;;;;;;9.90;3.83;;;23.80;34.70;;;;;;5024825;28;20022;-48
2022/01/31 06:29:08;;;;;;;7.53;3.13;;;23.90;34.60;;;;;;5024061;28;20068;-49
2022/01/31 06:31:33;;;;;;;7.25;2.80;;;23.90;34.50;;;;;;5024169;28;20033;-49
2022/01/31 06:34:00;;;;;;;10.50;3.45;;;23.90;34.30;;;;;;5023752;28;20025;-48
2022/01/31 06:36:27;;;;;;;7.05;2.60;;;24.00;34.30;;;;;;5022169;28;20030;-48
2022/01/31 06:38:53;;;;;;;7.85;3.03;;;24.10;34.20;;;;;;5022381;28;20025;-48
2022/01/31 06:41:19;;;;;;;7.10;2.83;;;24.10;34.10;;;;;;5021953;28;20112;-49
2022/01/31 06:43:46;;;;;;;5.68;2.75;;;24.10;33.90;;;;;;5024094;28;20125;-49
2022/01/31 06:46:14;;;;;;;6.00;2.65;;;24.20;33.80;;;;;;5024264;28;20105;-49
2022/01/31 06:48:40;;;;;;;6.10;2.25;;;24.30;33.80;;;;;;5024283;28;20038;-48
2022/01/31 06:51:06;;;;;;;6.80;2.42;;;24.30;33.70;;;;;;5024348;28;20068;-48
2022/01/31 06:53:32;;;;;;;6.13;2.65;;;24.30;33.60;;;;;;5023373;28;20030;-48
2022/01/31 06:55:59;;;;;;;6.53;2.20;;;24.40;33.60;;;;;;5023895;28;20045;-49
2022/01/31 06:58:25;;;;;;;5.78;2.35;;;24.40;33.50;;;;;;5023996;28;20489;-49
2022/01/31 07:00:51;;;;;;;4.43;2.20;;;24.50;33.60;;;;;;5024460;28;20549;-48
2022/01/31 07:03:17;;;;;;;6.07;2.58;;;24.50;33.50;;;;;;5023554;28;20029;-48
2022/01/31 07:05:44;;;;;;;5.85;2.55;;;24.60;33.40;;;;;;5023608;28;20661;-48
2022/01/31 07:08:10;;;;;;;6.15;2.35;;;24.60;33.40;;;;;;5024001;28;20599;-49
2022/01/31 07:10:37;;;;;;;6.53;2.30;;;24.70;33.30;;;;;;5022560;28;20076;-48
2022/01/31 07:13:11;;;;;;;5.25;2.05;;;24.70;33.90;;;;;;5024187;28;20517;-48
2022/01/31 07:15:38;;;;;;;4.45;2.13;;;24.70;33.20;;;;;;5023524;28;20026;-48
2022/01/31 07:18:04;;;;;;;5.13;2.00;;;24.80;33.10;;;;;;5024591;28;20037;-48
2022/01/31 07:20:39;;;;;;;5.43;2.00;;;24.80;33.00;;;;;;5021618;28;20030;-48
2022/01/31 07:23:15;;;;;;;4.55;1.63;;;24.80;33.00;;;;;;5021472;28;20028;-48
2022/01/31 07:25:41;;;;;;;3.65;1.60;;;24.90;33.00;;;;;;5021879;28;20155;-49
2022/01/31 07:28:09;;;;;;;6.25;1.95;;;24.90;32.90;;;;;;5022936;28;20709;-48
2022/01/31 07:30:37;;;;;;;5.95;1.88;;;24.90;32.80;;;;;;5022259;28;20029;-48
2022/01/31 07:33:04;;;;;;;3.65;1.50;;;25.00;32.80;;;;;;5022827;28;20017;-48
2022/01/31 07:35:29;;;;;;;5.28;1.65;;;25.00;32.40;;;;;;5022797;28;20045;-48
2022/01/31 07:37:55;;;;;;;4.13;1.35;;;25.00;32.40;;;;;;5022906;28;20473;-48
2022/01/31 07:40:21;;;;;;;6.00;1.63;;;25.00;32.50;;;;;;5021813;28;20014;-48
2022/01/31 07:42:47;;;;;;;4.55;1.52;;;25.00;32.70;;;;;;5022398;28;20495;-48
2022/01/31 07:45:13;;;;;;;5.72;2.13;;;25.10;32.70;;;;;;5021670;28;20041;-48
2022/01/31 07:47:40;;;;;;;5.50;2.28;;;25.10;32.50;;;;;;5023002;28;20507;-48
2022/01/31 07:50:06;;;;;;;4.28;2.03;;;25.10;32.50;;;;;;5022261;28;20021;-49
2022/01/31 07:52:32;;;;;;;3.75;1.67;;;25.10;32.30;;;;;;5023374;28;20022;-48
2022/01/31 07:54:58;;;;;;;3.58;1.80;;;25.10;32.30;;;;;;5024075;28;20037;-48
2022/01/31 07:57:25;;;;;;;4.57;2.10;;;25.20;32.30;;;;;;5025242;28;20034;-49
2022/01/31 07:59:54;;;;;;;4.65;1.92;;;25.20;32.30;;;;;;5026507;28;20084;-48
2022/01/31 08:02:20;;;;;;;4.43;1.75;;;25.20;32.30;;;;;;5028012;28;20026;-48
2022/01/31 08:04:46;;;;;;;3.30;1.50;;;25.20;32.20;;;;;;5027436;28;20166;-49
2022/01/31 08:07:12;;;;;;;4.65;1.58;;;25.20;32.20;;;;;;5027913;28;20111;-48
2022/01/31 08:09:39;;;;;;;3.70;1.48;;;25.20;32.10;;;;;;5028165;28;20029;-49
2022/01/31 08:12:05;;;;;;;3.70;1.45;;;25.20;32.10;;;;;;5027129;28;20032;-49
2022/01/31 08:14:32;;;;;;;3.20;1.50;;;25.30;32.00;;;;;;5028004;28;20404;-48
2022/01/31 08:16:57;;;;;;;4.03;1.58;;;25.30;32.10;;;;;;5027702;28;20581;-49
2022/01/31 08:19:23;;;;;;;3.42;1.52;;;25.30;32.00;;;;;;5028216;28;20112;-49
2022/01/31 08:21:49;;;;;;;4.20;1.65;;;25.30;31.90;;;;;;5026726;28;20485;-48
2022/01/31 08:24:15;;;;;;;4.05;1.45;;;25.30;31.90;;;;;;5028494;28;20061;-48
2022/01/31 08:26:41;;;;;;;4.15;1.48;;;25.30;31.90;;;;;;5028067;28;20029;-48
2022/01/31 08:29:28;;;;;;;4.47;1.67;;;25.30;31.90;;;;;;5028011;28;20110;-49
2022/01/31 08:31:54;;;;;;;3.28;1.33;;;25.30;31.90;;;;;;5027264;28;20034;-48
2022/01/31 08:35:47;;;;;;;4.32;1.73;;;25.30;31.90;;;;;;5027511;28;20529;-49
2022/01/31 08:37:13;;;;;;;4.38;1.70;;;25.30;31.90;;;;;;5027543;28;20045;-49
2022/01/31 08:39:38;;;;;;;3.60;1.75;;;25.30;31.90;;;;;;5027338;28;20017;-50
2022/01/31 08:42:04;;;;;;;3.40;1.45;;;25.30;31.90;;;;;;5026780;28;20032;-48
2022/01/31 08:44:30;;;;;;;3.78;1.70;;;25.30;31.80;;;;;;5027462;28;20163;-48
2022/01/31 08:46:59;;;;;;;3.22;1.20;;;25.30;31.80;;;;;;5027448;28;20037;-48
2022/01/31 08:49:25;;;;;;;3.90;1.77;;;25.40;31.80;;;;;;5027527;28;20115;-49
2022/01/31 08:51:51;;;;;;;2.83;1.17;;;25.30;31.70;;;;;;5025590;28;20065;-49
2022/01/31 08:54:17;;;;;;;2.33;1.13;;;25.40;31.70;;;;;;5026906;28;20547;-48
2022/01/31 08:56:45;;;;;;;2.63;1.10;;;25.40;31.70;;;;;;5025920;28;20105;-48
2022/01/31 08:59:17;;;;;;;3.30;1.45;;;25.30;31.70;;;;;;5027026;28;20264;-48
2022/01/31 09:01:51;;;;;;;2.72;1.30;;;25.40;31.60;;;;;;5027128;28;20116;-48
2022/01/31 09:04:32;;;;;;;3.50;1.33;;;25.40;31.60;;;;;;5027165;28;20125;-48
2022/01/31 09:06:58;;;;;;;4.05;1.27;;;25.40;31.70;;;;;;5026922;28;20111;-49
2022/01/31 09:09:24;;;;;;;2.83;1.30;;;25.40;31.60;;;;;;5025755;28;20033;-49
2022/01/31 09:11:50;;;;;;;3.03;1.40;;;25.40;31.60;;;;;;5026660;28;20040;-49
2022/01/31 09:14:16;;;;;;;3.50;1.23;;;25.40;31.60;;;;;;5027049;28;20165;-48
2022/01/31 09:16:41;;;;;;;2.78;1.30;;;25.40;31.60;;;;;;5026917;28;20024;-49
2022/01/31 09:19:07;;;;;;;3.67;1.23;;;25.40;31.50;;;;;;5026749;28;20048;-48
2022/01/31 09:21:34;;;;;;;3.47;1.40;;;25.40;31.50;;;;;;5026423;28;20037;-49
2022/01/31 09:24:00;;;;;;;3.97;1.40;;;25.40;31.50;;;;;;5026827;28;20017;-48
2022/01/31 09:26:26;;;;;;;3.22;1.33;;;25.40;31.50;;;;;;5026993;28;20033;-48
2022/01/31 09:28:53;;;;;;;4.05;1.25;;;25.40;31.50;;;;;;5026640;28;20041;-49
2022/01/31 09:31:20;;;;;;;2.90;1.30;;;25.40;31.50;;;;;;5025159;28;20022;-49
2022/01/31 09:33:47;;;;;;;2.25;1.00;;;25.40;31.40;;;;;;5026360;28;20602;-49
2022/01/31 09:36:13;;;;;;;3.78;1.63;;;25.40;31.50;;;;;;5026233;28;20045;-48
2022/01/31 09:38:40;;;;;;;3.60;1.17;;;25.40;31.40;;;;;;5026340;28;20095;-48
2022/01/31 09:41:09;;;;;;;2.85;1.15;;;25.40;31.50;;;;;;5026151;28;20104;-48
2022/01/31 09:48:43;;;;;;;2.38;1.10;;;25.40;31.40;;;;;;5026229;28;20083;-48
2022/01/31 09:51:12;;;;;;;3.28;1.13;;;25.40;31.40;;;;;;5025600;28;20185;-48
2022/01/31 09:53:48;;;;;;;3.30;1.38;;;25.40;31.40;;;;;;5026104;28;20034;-49
2022/01/31 09:56:22;;;;;;;2.30;1.00;;;25.40;31.50;;;;;;5026580;28;20065;-48
2022/01/31 09:58:49;;;;;;;2.40;1.08;;;25.40;31.40;;;;;;5025958;28;20021;-49
2022/01/31 10:01:18;;;;;;;2.60;1.00;;;25.40;31.30;;;;;;5024076;28;20302;-48
2022/01/31 10:03:49;;;;;;;2.50;0.88;;;25.40;31.40;;;;;;5041196;28;20504;-49
2022/01/31 10:06:28;;;;;;;2.75;1.15;;;25.40;31.40;;;;;;5025332;28;20418;-49
2022/01/31 10:09:22;;;;;;;2.30;1.02;;;25.40;31.40;;;;;;5025937;28;20022;-49
2022/01/31 10:11:53;;;;;;;2.65;1.00;;;25.40;31.40;;;;;;5025396;28;20104;-49
2022/01/31 10:17:10;;;;;;;3.33;1.10;;;25.40;31.40;;;;;;5006157;28;20117;-48
2022/01/31 10:19:44;;;;;;;2.40;0.90;;;25.40;31.30;;;;;;5006249;28;20018;-49
2022/01/31 10:22:13;;;;;;;2.35;1.10;;;25.40;31.30;;;;;;5020414;28;20079;-48
2022/01/31 10:24:41;;;;;;;4.28;1.10;;;25.40;31.40;;;;;;5025750;28;20033;-49
2022/01/31 10:27:08;;;;;;;1.80;0.85;;;25.40;31.30;;;;;;5025441;28;20044;-48
2022/01/31 10:29:34;;;;;;;2.03;0.88;;;25.40;31.30;;;;;;5024488;28;20481;-48
2022/01/31 10:32:09;;;;;;;2.60;1.08;;;25.40;31.30;;;;;;5024981;28;20249;-48
2022/01/31 10:34:38;;;;;;;2.45;0.98;;;25.40;31.20;;;;;;5025257;28;20037;-48
2022/01/31 10:37:09;;;;;;;2.65;1.10;;;25.40;31.30;;;;;;5040561;28;20037;-48
2022/01/31 10:53:43;;;;;;;1.85;0.70;;;25.40;31.30;;;;;;5025103;28;20032;-48
2022/01/31 10:56:09;;;;;;;2.53;1.20;;;25.40;31.20;;;;;;5023814;28;20021;-48
2022/01/31 10:58:51;;;;;;;2.33;0.88;;;25.40;31.20;;;;;;5025365;28;20087;-48
2022/01/31 11:01:17;;;;;;;2.13;0.98;;;25.40;31.20;;;;;;5025705;28;20129;-48
2022/01/31 11:03:45;;;;;;;1.67;0.80;;;25.40;31.20;;;;;;5024889;28;20684;-48
2022/01/31 11:06:11;;;;;;;2.55;0.90;;;25.40;31.10;;;;;;5024733;28;20025;-48
2022/01/31 11:08:38;;;;;;;2.58;1.20;;;25.40;31.10;;;;;;5025098;28;20029;-48
2022/01/31 11:11:05;;;;;;;2.17;0.90;;;25.40;31.10;;;;;;5024832;28;20029;-49
2022/01/31 11:13:36;;;;;;;2.58;1.10;;;25.40;31.10;;;;;;5024796;28;20312;-48
2022/01/31 11:16:04;;;;;;;1.88;0.70;;;25.40;31.10;;;;;;5023338;28;20470;-48
2022/01/31 11:18:32;;;;;;;2.33;0.90;;;25.40;31.10;;;;;;5024788;28;20033;-48
2022/01/31 11:21:01;;;;;;;2.22;0.93;;;25.40;31.10;;;;;;5024522;28;20052;-48
2022/01/31 11:23:29;;;;;;;1.92;0.82;;;25.40;31.10;;;;;;5023645;28;20036;-47
2022/01/31 11:26:00;;;;;;;2.80;0.95;;;25.40;31.10;;;;;;5013691;28;20025;-48
2022/01/31 11:28:30;;;;;;;2.92;1.23;;;25.40;31.10;;;;;;5024551;28;20033;-49
2022/01/31 11:30:56;;;;;;;2.58;0.90;;;25.40;31.10;;;;;;5024343;28;20029;-48
2022/01/31 11:33:24;;;;;;;3.28;1.08;;;25.40;31.10;;;;;;5023289;28;20037;-48
2022/01/31 11:35:51;;;;;;;2.22;0.80;;;25.40;31.10;;;;;;5024557;28;20037;-48
2022/01/31 11:38:17;;;;;;;3.00;1.13;;;25.40;31.10;;;;;;5024900;28;20112;-48
2022/01/31 11:40:44;;;;;;;2.95;0.90;;;25.40;31.10;;;;;;5024518;28;20112;-48
2022/01/31 11:43:11;;;;;;;2.63;1.05;;;25.40;31.10;;;;;;5024620;28;20021;-49
2022/01/31 11:45:40;;;;;;;2.65;0.90;;;25.40;31.00;;;;;;5024154;28;20037;-48
2022/01/31 11:48:12;;;;;;;2.63;1.08;;;25.40;31.00;;;;;;5024594;28;20030;-47
2022/01/31 11:50:43;;;;;;;2.38;0.77;;;25.40;31.10;;;;;;5023943;28;20668;-48
2022/01/31 11:53:10;;;;;;;1.60;0.68;;;25.40;31.00;;;;;;5024536;28;20048;-48
2022/01/31 11:55:38;;;;;;;2.88;1.08;;;25.40;31.10;;;;;;5024621;28;20061;-48
2022/01/31 11:58:09;;;;;;;2.30;1.08;;;25.40;31.00;;;;;;5024345;28;20041;-49
2022/01/31 12:00:37;;;;;;;2.50;0.93;;;25.40;31.20;;;;;;5022945;28;20029;-48
2022/01/31 12:03:06;;;;;;;2.08;0.70;;;25.40;31.00;;;;;;5023787;28;20547;-48
2022/01/31 12:05:36;;;;;;;1.48;0.65;;;25.40;31.00;;;;;;5024538;28;20376;-48
2022/01/31 12:08:17;;;;;;;2.00;0.70;;;25.40;31.00;;;;;;5024634;28;20029;-48
2022/01/31 12:10:54;;;;;;;2.15;0.80;;;25.40;31.00;;;;;;5022765;28;20026;-48
2022/01/31 12:13:41;;;;;;;1.73;0.73;;;25.40;31.00;;;;;;5024064;28;20113;-48
2022/01/31 12:16:30;;;;;;;1.92;0.82;;;25.40;31.00;;;;;;5022965;28;20061;-48
2022/01/31 12:19:17;;;;;;;1.55;0.70;;;25.40;31.00;;;;;;5023948;28;20043;-48
2022/01/31 12:21:59;;;;;;;2.05;0.80;;;25.40;31.00;;;;;;5023700;28;20041;-48
2022/01/31 12:24:46;;;;;;;2.30;1.00;;;25.30;31.00;;;;;;5024265;28;20040;-48
2022/01/31 12:27:17;;;;;;;3.15;0.93;;;25.30;31.00;;;;;;5024027;28;20026;-48
2022/01/31 12:29:52;;;;;;;1.77;0.77;;;25.30;31.10;;;;;;5023930;28;20030;-48
2022/01/31 12:32:35;;;;;;;2.42;0.85;;;25.30;31.10;;;;;;5023408;28;20113;-48
2022/01/31 12:35:07;;;;;;;1.27;0.50;;;25.30;31.10;;;;;;5024116;28;20612;-48
2022/01/31 12:37:36;;;;;;;2.45;0.52;;;25.30;31.10;;;;;;5023796;28;20041;-48
2022/01/31 12:40:13;;;;;;;2.55;0.80;;;25.30;31.10;;;;;;5023660;28;20036;-48
2022/01/31 12:45:33;;;;;;;2.88;0.77;;;25.30;31.10;;;;;;5026520;28;20608;-48
2022/01/31 12:48:18;;;;;;;3.30;1.10;;;25.30;31.00;;;;;;5027205;28;20072;-48
2022/01/31 12:51:05;;;;;;;2.47;0.70;;;25.30;31.10;;;;;;5027343;28;20093;-48
2022/01/31 12:56:12;;;;;;;2.17;0.80;;;25.30;30.90;;;;;;5027610;28;20022;-49
2022/01/31 12:58:41;;;;;;;2.30;0.70;;;25.20;30.90;;;;;;5026702;28;20036;-48
2022/01/31 13:01:19;;;;;;;2.33;0.90;;;25.30;30.90;;;;;;5026744;28;20029;-48
2022/01/31 13:03:48;;;;;;;2.08;0.60;;;25.30;30.90;;;;;;5026597;28;20128;-48
2022/01/31 13:06:27;;;;;;;1.70;0.73;;;25.30;31.00;;;;;;5026863;28;20065;-48
2022/01/31 13:08:53;;;;;;;0.75;0.43;;;25.30;31.00;;;;;;5026485;28;20026;-48
2022/01/31 13:11:19;;;;;;;1.83;0.80;;;25.20;30.90;;;;;;5026805;28;20021;-48
2022/01/31 13:13:45;;;;;;;1.63;0.70;;;25.30;30.90;;;;;;5026906;28;20111;-48
2022/01/31 13:16:13;;;;;;;2.10;0.90;;;25.30;30.90;;;;;;5026525;28;20397;-48
2022/01/31 13:18:40;;;;;;;1.67;0.63;;;25.30;30.90;;;;;;5026778;28;20033;-47
2022/01/31 13:21:09;;;;;;;2.28;0.73;;;25.30;30.90;;;;;;5026999;28;20052;-49